Time;durP1;ratioP1;P1;durP2;ratioP2;P2;SDS_P1;SDS_P2;PMS_P1;PMS_P2;Temp;Humidity;BMP_temperature;BMP_pressure;BME280_temperature;BME280_humidity;BME280_pressure;Samples;Min_cycle;Max_cycle;Signal;HPM_P1;HPM_P2
2022/08/10 00:00:21;;;;;;;3.17;2.40;;;15.30;99.90;;;;;;5056659;28;20559;-79
2022/08/10 00:02:51;;;;;;;3.03;2.83;;;15.20;99.90;;;;;;5057913;28;20184;-80
2022/08/10 00:05:17;;;;;;;2.67;2.40;;;15.20;99.90;;;;;;5058369;28;20540;-79
2022/08/10 00:07:43;;;;;;;2.73;2.53;;;15.20;99.90;;;;;;5058156;28;20669;-80
2022/08/10 00:10:10;;;;;;;2.73;2.43;;;15.20;99.90;;;;;;5058059;28;20633;-79
2022/08/10 00:12:36;;;;;;;3.20;2.50;;;15.20;99.90;;;;;;5056246;28;20295;-80
2022/08/10 00:15:02;;;;;;;2.90;2.70;;;15.20;99.90;;;;;;5057466;28;20637;-80
2022/08/10 00:17:28;;;;;;;4.87;2.40;;;15.20;99.90;;;;;;5056290;28;20173;-80
2022/08/10 00:19:54;;;;;;;3.30;2.63;;;15.10;99.90;;;;;;5057566;28;20200;-80
2022/08/10 00:22:19;;;;;;;3.73;2.30;;;15.10;99.90;;;;;;5056337;28;20721;-80
2022/08/10 00:24:45;;;;;;;2.50;2.30;;;15.10;99.90;;;;;;5056272;28;20177;-80
2022/08/10 00:27:11;;;;;;;3.43;2.57;;;15.00;99.90;;;;;;5057051;28;20543;-80
2022/08/10 00:29:36;;;;;;;4.53;2.73;;;15.00;99.90;;;;;;5057955;28;20235;-80
2022/08/10 00:32:02;;;;;;;3.10;2.80;;;14.90;99.90;;;;;;5057192;28;20210;-80
2022/08/10 00:34:30;;;;;;;4.33;3.10;;;14.90;99.90;;;;;;5058104;28;20481;-80
2022/08/10 00:36:56;;;;;;;4.13;2.70;;;14.90;99.90;;;;;;5057242;28;20203;-80
2022/08/10 00:39:22;;;;;;;3.30;2.60;;;14.80;99.90;;;;;;5058508;28;20238;-80
2022/08/10 00:41:48;;;;;;;3.40;3.10;;;14.80;99.90;;;;;;5057614;28;20269;-81
2022/08/10 00:44:13;;;;;;;2.80;2.60;;;14.80;99.90;;;;;;5058879;28;20248;-80
2022/08/10 00:46:39;;;;;;;3.80;3.17;;;14.80;99.90;;;;;;5059247;28;20179;-81
2022/08/10 00:49:05;;;;;;;4.23;2.77;;;14.70;99.90;;;;;;5059475;28;20198;-80
2022/08/10 00:51:30;;;;;;;4.00;3.10;;;14.70;99.90;;;;;;5060439;28;20193;-80
2022/08/10 00:53:56;;;;;;;2.77;2.57;;;14.70;99.90;;;;;;5060919;28;20595;-80
2022/08/10 00:56:22;;;;;;;4.53;2.57;;;14.60;99.90;;;;;;5061743;28;20216;-79
2022/08/10 00:58:48;;;;;;;3.27;2.97;;;14.60;99.90;;;;;;5060059;28;20197;-80
2022/08/10 01:01:14;;;;;;;3.50;2.83;;;14.60;99.90;;;;;;5057404;28;20203;-80
2022/08/10 01:03:39;;;;;;;4.83;3.03;;;14.60;99.90;;;;;;5057563;28;20176;-80
2022/08/10 01:06:19;;;;;;;6.23;3.20;;;14.60;99.90;;;;;;5056497;28;20178;-80
2022/08/10 01:08:51;;;;;;;3.50;2.97;;;14.60;99.90;;;;;;5055352;28;20212;-80
2022/08/10 01:11:50;;;;;;;3.03;2.70;;;14.60;99.90;;;;;;5057579;28;20621;-80
2022/08/10 01:14:15;;;;;;;2.93;2.63;;;14.50;99.90;;;;;;5056379;28;20171;-80
2022/08/10 01:16:51;;;;;;;3.27;3.07;;;14.40;99.90;;;;;;5058779;28;20223;-80
2022/08/10 01:19:50;;;;;;;3.60;3.27;;;14.40;99.90;;;;;;5055665;28;20585;-80
2022/08/10 01:22:34;;;;;;;4.43;3.20;;;14.40;99.90;;;;;;5056384;28;20674;-79
2022/08/10 01:25:10;;;;;;;3.53;3.23;;;14.40;99.90;;;;;;5056176;28;20656;-80
2022/08/10 01:27:53;;;;;;;3.57;3.27;;;14.30;99.90;;;;;;5054599;28;20181;-80
2022/08/10 01:30:19;;;;;;;3.63;3.33;;;14.20;99.90;;;;;;5056484;28;20217;-80
2022/08/10 01:33:04;;;;;;;4.03;3.63;;;14.20;99.90;;;;;;5054857;28;20194;-80
2022/08/10 01:35:45;;;;;;;4.57;3.60;;;14.20;99.90;;;;;;5055324;28;20288;-80
2022/08/10 01:38:18;;;;;;;4.07;3.57;;;14.10;99.90;;;;;;5054226;28;20219;-80
2022/08/10 01:41:03;;;;;;;4.90;3.77;;;14.30;99.90;;;;;;5055844;28;20170;-80
2022/08/10 01:43:32;;;;;;;4.27;3.87;;;14.00;99.90;;;;;;5055807;28;20174;-80
2022/08/10 01:46:00;;;;;;;5.13;4.30;;;13.90;99.90;;;;;;5054150;28;20173;-80
2022/08/10 01:48:31;;;;;;;5.53;4.07;;;13.80;99.90;;;;;;5054187;28;20196;-80
2022/08/10 01:51:26;;;;;;;4.57;4.13;;;13.80;99.90;;;;;;5056171;28;20189;-80
2022/08/10 01:54:02;;;;;;;4.90;4.20;;;13.80;99.90;;;;;;5056440;28;20211;-80
2022/08/10 01:56:32;;;;;;;4.70;4.20;;;13.80;99.90;;;;;;5055053;28;20176;-80
2022/08/10 01:59:01;;;;;;;5.07;4.03;;;13.70;99.90;;;;;;5055042;28;20559;-79
2022/08/10 02:01:31;;;;;;;4.17;3.77;;;13.70;99.90;;;;;;5056758;28;20570;-80
2022/08/10 02:04:01;;;;;;;5.27;4.20;;;13.70;99.90;;;;;;5056526;28;20169;-80
2022/08/10 02:06:29;;;;;;;5.83;4.13;;;13.70;99.90;;;;;;5056470;28;20635;-80
2022/08/10 02:08:57;;;;;;;5.03;4.53;;;13.70;99.90;;;;;;5056552;28;20205;-80
2022/08/10 02:11:27;;;;;;;4.60;4.20;;;13.70;99.90;;;;;;5061114;28;20606;-79
2022/08/10 02:13:55;;;;;;;5.73;3.63;;;13.60;99.90;;;;;;5059198;28;20174;-80
2022/08/10 02:16:23;;;;;;;4.17;3.77;;;13.60;99.90;;;;;;5056098;28;20196;-80
2022/08/10 02:18:51;;;;;;;4.50;4.10;;;13.60;99.90;;;;;;5056041;28;20190;-80
2022/08/10 02:21:19;;;;;;;5.27;3.80;;;13.60;99.90;;;;;;5056586;28;20177;-80
2022/08/10 02:23:45;;;;;;;3.80;3.50;;;13.60;99.90;;;;;;5059500;28;20624;-79
2022/08/10 02:26:12;;;;;;;5.77;4.37;;;13.50;99.90;;;;;;5059868;28;20177;-80
2022/08/10 02:28:40;;;;;;;4.50;4.10;;;13.60;99.90;;;;;;5059641;28;20202;-80
2022/08/10 02:31:10;;;;;;;4.43;4.03;;;13.60;99.90;;;;;;5058677;28;20197;-79
2022/08/10 02:33:36;;;;;;;5.97;4.10;;;13.50;99.90;;;;;;5060740;28;20200;-80
2022/08/10 02:36:05;;;;;;;4.13;3.73;;;13.50;99.90;;;;;;5058255;28;20205;-80
2022/08/10 02:38:34;;;;;;;5.77;3.97;;;13.40;99.90;;;;;;5060336;28;20254;-80
2022/08/10 02:41:10;;;;;;;3.93;3.53;;;13.40;99.90;;;;;;5059877;28;20205;-80
2022/08/10 02:44:15;;;;;;;9.30;5.80;;;13.40;99.90;;;;;;5060627;28;20215;-80
2022/08/10 02:46:47;;;;;;;4.03;3.67;;;13.30;99.90;;;;;;5058433;28;20516;-80
2022/08/10 02:49:21;;;;;;;7.53;4.20;;;13.30;99.90;;;;;;5055495;28;20701;-80
2022/08/10 02:51:57;;;;;;;5.37;4.00;;;13.30;99.90;;;;;;5061240;28;20209;-80
2022/08/10 02:54:31;;;;;;;4.53;4.13;;;13.20;99.90;;;;;;5059683;28;20375;-80
2022/08/10 02:57:19;;;;;;;5.37;4.07;;;13.20;99.90;;;;;;5060598;28;20166;-80
2022/08/10 02:59:49;;;;;;;5.23;4.40;;;13.20;99.90;;;;;;5060706;28;20194;-80
2022/08/10 03:02:22;;;;;;;5.63;4.70;;;13.20;99.90;;;;;;5061743;28;20182;-80
2022/08/10 03:04:52;;;;;;;5.73;5.07;;;13.20;99.90;;;;;;5059202;28;20185;-80
2022/08/10 03:07:21;;;;;;;5.20;4.80;;;13.10;99.90;;;;;;5058435;28;20177;-80
2022/08/10 03:09:49;;;;;;;4.50;4.10;;;13.10;99.90;;;;;;5057321;28;20213;-80
2022/08/10 03:12:16;;;;;;;5.23;4.73;;;13.10;99.90;;;;;;5057715;28;20712;-80
2022/08/10 03:14:43;;;;;;;4.93;4.43;;;13.10;99.90;;;;;;5057030;28;20208;-80
2022/08/10 03:17:11;;;;;;;7.80;5.00;;;13.10;99.90;;;;;;5058603;28;20173;-80
2022/08/10 03:19:38;;;;;;;5.10;4.63;;;13.10;99.90;;;;;;5058240;28;20190;-80
2022/08/10 03:22:04;;;;;;;7.67;4.93;;;13.10;99.90;;;;;;5057030;28;20651;-79
2022/08/10 03:24:32;;;;;;;5.73;4.40;;;13.10;99.90;;;;;;5058549;28;20177;-80
2022/08/10 03:26:58;;;;;;;6.73;5.17;;;13.10;99.90;;;;;;5058477;28;20165;-80
2022/08/10 03:29:25;;;;;;;5.80;5.27;;;13.00;99.90;;;;;;5058414;28;20281;-79
2022/08/10 03:31:52;;;;;;;6.90;4.90;;;13.10;99.90;;;;;;5058053;28;20190;-80
2022/08/10 03:34:19;;;;;;;7.17;5.27;;;13.00;99.90;;;;;;5058094;28;20173;-80
2022/08/10 03:36:45;;;;;;;6.10;4.87;;;13.00;99.90;;;;;;5058691;28;20211;-80
2022/08/10 03:39:12;;;;;;;7.50;4.90;;;13.00;99.90;;;;;;5057001;28;20221;-80
2022/08/10 03:41:48;;;;;;;5.93;4.50;;;13.00;99.90;;;;;;5057066;28;20177;-80
2022/08/10 03:44:19;;;;;;;5.43;4.93;;;12.90;99.90;;;;;;5058614;28;20177;-80
2022/08/10 03:46:47;;;;;;;6.73;4.60;;;12.90;99.90;;;;;;5059017;28;20192;-80
2022/08/10 03:49:18;;;;;;;6.13;5.27;;;12.90;99.90;;;;;;5058326;28;20198;-80
2022/08/10 03:51:48;;;;;;;7.57;5.50;;;12.90;99.90;;;;;;5058791;28;20193;-80
2022/08/10 03:54:15;;;;;;;6.97;5.17;;;12.80;99.90;;;;;;5059150;28;20168;-80
2022/08/10 03:56:42;;;;;;;7.47;5.73;;;12.70;99.90;;;;;;5059045;28;20571;-79
2022/08/10 03:59:10;;;;;;;5.67;5.17;;;12.80;99.90;;;;;;5058722;28;20281;-80
2022/08/10 04:01:36;;;;;;;6.43;5.27;;;12.80;99.90;;;;;;5059306;28;20192;-80
2022/08/10 04:04:02;;;;;;;8.17;5.83;;;12.80;99.90;;;;;;5057990;28;20539;-79
2022/08/10 04:06:28;;;;;;;9.10;5.50;;;12.80;99.90;;;;;;5059394;28;20169;-80
2022/08/10 04:08:54;;;;;;;7.30;5.17;;;12.70;99.90;;;;;;5062332;28;20209;-79
2022/08/10 04:11:20;;;;;;;6.53;5.40;;;12.70;99.90;;;;;;5057938;28;20193;-80
2022/08/10 04:13:46;;;;;;;5.57;5.07;;;12.70;99.90;;;;;;5058420;28;20166;-80
2022/08/10 04:16:11;;;;;;;7.47;5.33;;;12.70;99.90;;;;;;5057072;28;20182;-80
2022/08/10 04:18:37;;;;;;;6.30;5.80;;;12.70;99.90;;;;;;5058862;28;20197;-80
2022/08/10 04:21:13;;;;;;;5.73;5.23;;;12.70;99.90;;;;;;5058353;28;20188;-79
2022/08/10 04:23:44;;;;;;;7.60;5.57;;;12.70;99.90;;;;;;5058466;28;20165;-80
2022/08/10 04:26:11;;;;;;;5.30;4.80;;;12.70;99.90;;;;;;5056893;28;20173;-80
2022/08/10 04:28:38;;;;;;;8.47;5.60;;;12.60;99.90;;;;;;5057057;28;20272;-80
2022/08/10 04:31:06;;;;;;;6.33;5.83;;;12.50;99.90;;;;;;5057449;28;20355;-80
2022/08/10 04:33:33;;;;;;;8.50;5.53;;;12.60;99.90;;;;;;5058168;28;20169;-79
2022/08/10 04:36:02;;;;;;;6.50;5.90;;;12.60;99.90;;;;;;5056738;28;20173;-79
2022/08/10 04:38:30;;;;;;;8.40;5.43;;;12.60;99.90;;;;;;5056876;28;20196;-80
2022/08/10 04:40:57;;;;;;;8.33;5.77;;;12.60;99.90;;;;;;5058426;28;20192;-80
2022/08/10 04:43:22;;;;;;;6.83;6.13;;;12.60;99.90;;;;;;5057969;28;20185;-80
2022/08/10 04:45:48;;;;;;;6.90;5.70;;;;;;;;;;5057927;28;20261;-81
2022/08/10 04:48:15;;;;;;;8.33;6.37;;;12.70;99.90;;;;;;5056803;28;20181;-80
2022/08/10 04:50:40;;;;;;;6.53;5.83;;;12.70;99.90;;;;;;5056636;28;20197;-80
2022/08/10 04:53:06;;;;;;;9.17;5.83;;;12.70;99.90;;;;;;5058331;28;20166;-80
2022/08/10 04:55:31;;;;;;;5.97;5.37;;;12.80;99.90;;;;;;5057110;28;20651;-80
2022/08/10 04:57:57;;;;;;;9.30;6.20;;;12.90;99.90;;;;;;5057282;28;20223;-80
2022/08/10 05:00:23;;;;;;;5.60;5.10;;;12.90;99.90;;;;;;5058486;28;20186;-81
2022/08/10 05:02:50;;;;;;;6.23;5.63;;;12.90;99.90;;;;;;5059418;28;20207;-80
2022/08/10 05:05:16;;;;;;;6.50;5.70;;;;;;;;;;5060306;28;20616;-80
2022/08/10 05:07:42;;;;;;;8.13;5.53;;;;;;;;;;5060832;28;20196;-80
2022/08/10 05:10:09;;;;;;;6.27;5.50;;;;;;;;;;5060889;28;20217;-81
2022/08/10 05:12:36;;;;;;;10.77;5.40;;;13.10;99.90;;;;;;5060879;28;20374;-80
2022/08/10 05:15:13;;;;;;;7.43;5.43;;;13.20;99.90;;;;;;5056283;28;20213;-80
2022/08/10 05:17:41;;;;;;;8.80;5.43;;;13.20;99.90;;;;;;5057940;28;20174;-80
2022/08/10 05:20:10;;;;;;;6.70;5.30;;;13.30;99.90;;;;;;5057063;28;20197;-80
2022/08/10 05:22:38;;;;;;;6.00;4.93;;;13.40;99.90;;;;;;5054804;28;20268;-80
2022/08/10 05:25:05;;;;;;;5.17;4.63;;;13.30;99.90;;;;;;5056782;28;20174;-80
2022/08/10 05:27:32;;;;;;;6.20;5.30;;;13.40;99.90;;;;;;5055821;28;20181;-80
2022/08/10 05:29:58;;;;;;;6.63;4.73;;;13.50;99.90;;;;;;5055445;28;20208;-80
2022/08/10 05:32:24;;;;;;;5.20;4.60;;;13.60;99.90;;;;;;5056616;28;20571;-79
2022/08/10 05:34:49;;;;;;;7.87;5.33;;;13.70;99.90;;;;;;5056346;28;20222;-80
2022/08/10 05:37:16;;;;;;;5.53;4.87;;;13.70;99.90;;;;;;5056065;28;20169;-80
2022/08/10 05:39:43;;;;;;;5.50;5.00;;;13.80;99.90;;;;;;5056296;28;20225;-79
2022/08/10 05:42:09;;;;;;;6.23;5.03;;;13.80;99.90;;;;;;5056647;28;20177;-81
2022/08/10 05:44:35;;;;;;;6.53;4.87;;;13.90;99.90;;;;;;5054951;28;20269;-80
2022/08/10 05:47:01;;;;;;;5.33;4.53;;;13.90;99.90;;;;;;5056466;28;20178;-80
2022/08/10 05:49:26;;;;;;;5.20;4.40;;;14.00;99.90;;;;;;5055783;28;20247;-80
2022/08/10 05:51:52;;;;;;;5.10;4.60;;;14.00;99.90;;;;;;5056556;28;20202;-80
2022/08/10 05:54:18;;;;;;;10.20;5.03;;;14.10;99.90;;;;;;5054903;28;20178;-80
2022/08/10 05:56:46;;;;;;;5.30;4.80;;;14.10;99.90;;;;;;5058567;28;20231;-80
2022/08/10 05:59:15;;;;;;;5.47;4.37;;;14.20;99.90;;;;;;5059471;28;20198;-80
2022/08/10 06:01:47;;;;;;;10.30;4.67;;;14.30;99.90;;;;;;5059925;28;20178;-80
2022/08/10 06:04:18;;;;;;;6.20;4.47;;;14.30;99.90;;;;;;5060002;28;20185;-80
2022/08/10 06:06:46;;;;;;;4.93;4.33;;;14.40;99.90;;;;;;5060409;28;20223;-81
2022/08/10 06:09:15;;;;;;;5.17;4.37;;;14.50;99.90;;;;;;5058868;28;20209;-79
2022/08/10 06:11:42;;;;;;;7.33;4.10;;;14.50;99.90;;;;;;5059699;28;20278;-80
2022/08/10 06:16:53;;;;;;;8.47;4.10;;;14.70;99.90;;;;;;5060582;28;20216;-79
2022/08/10 06:19:19;;;;;;;4.30;3.90;;;14.80;99.90;;;;;;5058277;28;20721;-78
2022/08/10 06:21:46;;;;;;;5.67;3.87;;;14.80;99.90;;;;;;5055608;28;20276;-81
2022/08/10 06:24:16;;;;;;;6.17;4.03;;;14.90;99.90;;;;;;5059326;28;20179;-79
2022/08/10 06:26:42;;;;;;;6.87;4.00;;;15.00;99.90;;;;;;5057521;28;20181;-78
2022/08/10 06:29:11;;;;;;;7.37;3.47;;;15.10;99.90;;;;;;5056205;28;20201;-78
2022/08/10 06:31:47;;;;;;;6.17;4.23;;;15.20;99.90;;;;;;5058447;28;20882;-78
2022/08/10 06:34:16;;;;;;;4.30;3.90;;;15.30;99.90;;;;;;5058000;28;20156;-78
2022/08/10 06:36:43;;;;;;;5.23;3.70;;;15.40;99.90;;;;;;5058039;28;20179;-79
2022/08/10 06:39:09;;;;;;;4.23;3.83;;;15.50;99.90;;;;;;5057608;28;20206;-78
2022/08/10 06:41:43;;;;;;;5.57;3.63;;;15.60;99.90;;;;;;5059005;28;20186;-78
2022/08/10 06:44:14;;;;;;;4.73;3.57;;;15.70;99.90;;;;;;5061307;28;20174;-78
2022/08/10 06:46:44;;;;;;;4.97;3.00;;;15.90;99.90;;;;;;5061183;28;20166;-79
2022/08/10 06:49:13;;;;;;;5.00;3.63;;;16.00;99.90;;;;;;5058600;28;20569;-78
2022/08/10 06:51:42;;;;;;;14.80;4.70;;;16.00;99.90;;;;;;5058265;28;20200;-78
2022/08/10 06:54:11;;;;;;;8.80;3.93;;;16.20;99.90;;;;;;5056672;28;20176;-78
2022/08/10 06:56:43;;;;;;;7.87;3.63;;;16.30;99.90;;;;;;5058138;28;20174;-79
2022/08/10 06:59:14;;;;;;;12.07;3.67;;;16.30;99.90;;;;;;5058583;28;20287;-79
2022/08/10 07:01:42;;;;;;;5.73;3.30;;;16.40;99.90;;;;;;5058691;28;20174;-80
2022/08/10 07:04:17;;;;;;;6.43;3.10;;;16.50;99.90;;;;;;5059735;28;20262;-79
2022/08/10 07:06:47;;;;;;;6.73;3.43;;;16.60;99.90;;;;;;5057335;28;20695;-79
2022/08/10 07:09:18;;;;;;;3.40;3.00;;;16.80;99.90;;;;;;5060429;28;20214;-79
2022/08/10 07:11:46;;;;;;;7.83;3.20;;;16.80;99.90;;;;;;5060199;28;20199;-79
2022/08/10 07:14:15;;;;;;;7.50;3.30;;;17.00;99.90;;;;;;5060692;28;20174;-80
2022/08/10 07:16:43;;;;;;;11.70;3.00;;;17.10;99.90;;;;;;5060841;28;20179;-79
2022/08/10 07:19:10;;;;;;;7.07;2.70;;;17.20;99.90;;;;;;5060588;28;20203;-79
2022/08/10 07:21:39;;;;;;;3.77;2.97;;;17.40;99.90;;;;;;5062588;28;20706;-79
2022/08/10 07:24:08;;;;;;;3.07;2.67;;;17.50;99.90;;;;;;5063462;28;20190;-79
2022/08/10 07:26:36;;;;;;;5.43;2.40;;;17.70;99.90;;;;;;5061171;28;20183;-79
2022/08/10 07:29:04;;;;;;;7.23;3.17;;;17.80;99.90;;;;;;5058979;28;20199;-78
2022/08/10 07:31:31;;;;;;;5.73;2.70;;;17.90;99.90;;;;;;5058839;28;20194;-78
2022/08/10 07:33:58;;;;;;;7.40;2.77;;;18.10;99.90;;;;;;5058920;28;20177;-78
2022/08/10 07:36:27;;;;;;;5.40;2.30;;;18.20;99.90;;;;;;5058420;28;20179;-77
2022/08/10 07:38:54;;;;;;;4.90;2.63;;;18.40;99.90;;;;;;5058489;28;20191;-78
2022/08/10 07:41:22;;;;;;;5.27;2.20;;;18.50;99.90;;;;;;5057380;28;20181;-78
2022/08/10 07:43:50;;;;;;;3.93;2.17;;;18.60;99.90;;;;;;5057481;28;20187;-78
2022/08/10 07:46:21;;;;;;;4.43;2.20;;;18.80;99.90;;;;;;5058796;28;20183;-78
2022/08/10 07:48:52;;;;;;;2.67;2.03;;;19.00;99.90;;;;;;5058369;28;20200;-78
2022/08/10 07:51:20;;;;;;;1.90;1.80;;;19.20;99.90;;;;;;5058542;28;20306;-79
2022/08/10 07:53:50;;;;;;;5.03;2.10;;;19.30;99.90;;;;;;5057009;28;20184;-79
2022/08/10 07:56:20;;;;;;;3.73;2.17;;;19.50;99.90;;;;;;5058675;28;20255;-78
2022/08/10 07:58:51;;;;;;;8.00;2.10;;;19.60;99.90;;;;;;5056529;28;20568;-77
2022/08/10 08:01:19;;;;;;;4.27;2.10;;;19.70;99.90;;;;;;5055825;28;20177;-78
2022/08/10 08:03:47;;;;;;;3.47;2.20;;;19.90;99.90;;;;;;5057250;28;20185;-78
2022/08/10 08:06:13;;;;;;;4.70;1.90;;;20.00;99.90;;;;;;5058018;28;20184;-78
2022/08/10 08:08:42;;;;;;;7.63;2.10;;;20.20;99.90;;;;;;5057201;28;20242;-78
2022/08/10 08:11:10;;;;;;;9.37;2.10;;;20.40;99.90;;;;;;5058350;28;20194;-78
2022/08/10 08:13:38;;;;;;;1.80;1.60;;;20.50;99.90;;;;;;5058181;28;20695;-78
2022/08/10 08:16:05;;;;;;;2.10;1.67;;;20.70;99.90;;;;;;5058012;28;20181;-79
2022/08/10 08:18:34;;;;;;;4.30;1.80;;;21.20;99.90;;;;;;5055882;28;20205;-78
2022/08/10 08:21:01;;;;;;;3.03;1.93;;;21.10;99.90;;;;;;5058166;28;20177;-79
2022/08/10 08:23:28;;;;;;;6.03;2.00;;;21.30;99.90;;;;;;5058122;28;20174;-78
2022/08/10 08:25:55;;;;;;;1.93;1.60;;;21.40;99.90;;;;;;5058343;28;20177;-79
2022/08/10 08:28:22;;;;;;;4.63;2.10;;;21.50;99.90;;;;;;5057605;28;20177;-79
2022/08/10 08:30:49;;;;;;;7.93;2.07;;;21.60;99.90;;;;;;5057846;28;20228;-80
2022/08/10 08:33:16;;;;;;;2.73;2.07;;;21.70;99.90;;;;;;5057646;28;20256;-80
2022/08/10 08:35:43;;;;;;;8.40;2.37;;;21.90;99.90;;;;;;5053910;28;20174;-79
2022/08/10 08:38:11;;;;;;;2.60;1.83;;;22.20;99.90;;;;;;5055916;28;20398;-80
2022/08/10 08:40:39;;;;;;;7.43;1.90;;;22.20;99.90;;;;;;5055071;28;20236;-79
2022/08/10 08:43:40;;;;;;;5.50;2.03;;;22.30;99.90;;;;;;5055525;28;20269;-80
2022/08/10 08:46:37;;;;;;;3.27;1.80;;;22.40;99.90;;;;;;5057624;28;20204;-78
2022/08/10 08:49:05;;;;;;;4.90;1.90;;;22.50;99.90;;;;;;5054996;28;20603;-79
2022/08/10 08:52:16;;;;;;;4.70;1.80;;;22.60;99.90;;;;;;5055572;28;20205;-80
2022/08/10 08:55:06;;;;;;;5.93;2.17;;;22.80;99.90;;;;;;5056883;28;20178;-79
2022/08/10 08:58:18;;;;;;;5.53;1.80;;;23.00;99.90;;;;;;5056909;28;20174;-79
2022/08/10 09:00:54;;;;;;;9.03;2.40;;;23.30;99.90;;;;;;5057157;28;20595;-79
2022/08/10 09:03:38;;;;;;;3.43;1.80;;;23.40;99.90;;;;;;5056667;28;20186;-79
2022/08/10 09:06:41;;;;;;;7.07;1.70;;;23.60;99.90;;;;;;5056412;28;20183;-81
2022/08/10 09:10:04;;;;;;;3.57;1.57;;;23.60;99.90;;;;;;5055125;28;20555;-79
2022/08/10 09:12:40;;;;;;;3.30;1.43;;;23.60;99.90;;;;;;5055926;28;20270;-80
2022/08/10 09:15:48;;;;;;;2.13;1.47;;;23.80;99.90;;;;;;5041303;28;20177;-80
2022/08/10 09:18:52;;;;;;;2.80;1.40;;;23.80;99.90;;;;;;5057056;28;20185;-80
2022/08/10 09:21:40;;;;;;;1.93;1.33;;;23.90;99.90;;;;;;5056516;28;20194;-79
2022/08/10 09:24:24;;;;;;;1.93;1.70;;;23.90;99.90;;;;;;5055537;28;20518;-78
2022/08/10 09:26:52;;;;;;;1.40;1.20;;;24.10;99.90;;;;;;5056862;28;20254;-79
2022/08/10 09:29:30;;;;;;;5.70;1.50;;;24.30;99.90;;;;;;5057586;28;20297;-80
2022/08/10 09:32:32;;;;;;;4.10;1.60;;;24.40;99.90;;;;;;5062066;28;20223;-79
2022/08/10 09:35:05;;;;;;;2.57;1.40;;;24.50;99.90;;;;;;5067084;28;20260;-80
2022/08/10 09:37:40;;;;;;;1.90;1.20;;;24.70;99.70;;;;;;5056188;28;20167;-79
2022/08/10 09:40:16;;;;;;;1.93;1.10;;;24.70;99.90;;;;;;5055111;28;20207;-79
2022/08/10 09:42:59;;;;;;;6.00;1.50;;;24.70;99.80;;;;;;5054528;28;20171;-79
2022/08/10 09:46:14;;;;;;;3.13;1.40;;;24.90;99.90;;;;;;5055841;28;20224;-79
2022/08/10 09:49:02;;;;;;;4.50;1.30;;;25.60;97.60;;;;;;5055634;28;20196;-80
2022/08/10 09:51:39;;;;;;;2.73;1.43;;;25.50;98.90;;;;;;5056554;28;20201;-79
2022/08/10 09:54:39;;;;;;;3.77;1.20;;;25.90;99.90;;;;;;5055741;28;20272;-79
2022/08/10 09:57:23;;;;;;;2.30;1.40;;;26.10;99.90;;;;;;5056303;28;20166;-80
2022/08/10 10:00:12;;;;;;;8.97;1.40;;;26.30;95.60;;;;;;5055679;28;20206;-80
2022/08/10 10:02:48;;;;;;;3.30;1.30;;;26.40;98.40;;;;;;5055041;28;20169;-80
2022/08/10 10:05:35;;;;;;;3.67;1.27;;;26.40;97.10;;;;;;5055047;28;20177;-80
2022/08/10 10:08:36;;;;;;;2.03;1.10;;;26.40;96.20;;;;;;5056206;28;20187;-80
2022/08/10 10:11:14;;;;;;;3.53;1.23;;;26.40;96.10;;;;;;5057172;28;20172;-80
2022/08/10 10:13:55;;;;;;;6.93;1.40;;;26.60;97.50;;;;;;5055449;28;20169;-80
2022/08/10 10:16:56;;;;;;;4.17;1.30;;;26.70;96.80;;;;;;5055544;28;20166;-80
2022/08/10 10:19:43;;;;;;;5.40;1.17;;;26.80;94.80;;;;;;5055264;28;20202;-80
2022/08/10 10:22:37;;;;;;;6.57;1.87;;;26.70;95.70;;;;;;5056613;28;20749;-81
2022/08/10 10:25:12;;;;;;;7.67;1.60;;;26.80;94.20;;;;;;5057423;28;20193;-80
2022/08/10 10:27:56;;;;;;;4.90;1.00;;;26.90;92.70;;;;;;5055464;28;20219;-81
2022/08/10 10:30:25;;;;;;;2.60;1.50;;;27.00;91.30;;;;;;5056977;28;20193;-79
2022/08/10 10:33:08;;;;;;;3.20;1.23;;;27.10;94.70;;;;;;5056160;28;20210;-80
2022/08/10 10:36:08;;;;;;;3.90;1.47;;;27.10;93.30;;;;;;5056562;28;20255;-80
2022/08/10 10:38:38;;;;;;;5.50;1.17;;;27.10;93.60;;;;;;5055228;28;20189;-80
2022/08/10 10:41:35;;;;;;;2.17;1.17;;;27.20;93.40;;;;;;5056762;28;20566;-82
2022/08/10 10:44:16;;;;;;;2.27;1.13;;;27.30;92.10;;;;;;5061193;28;20170;-81
2022/08/10 10:47:02;;;;;;;2.10;1.00;;;27.30;90.00;;;;;;5061397;28;20167;-81
2022/08/10 10:50:00;;;;;;;1.20;1.03;;;27.60;91.50;;;;;;5061406;28;20223;-81
2022/08/10 10:52:43;;;;;;;2.00;1.10;;;27.70;90.60;;;;;;5061884;28;20219;-78
2022/08/10 10:55:24;;;;;;;5.23;1.00;;;28.00;90.00;;;;;;5061169;28;20260;-79
2022/08/10 10:58:05;;;;;;;3.23;1.10;;;28.20;90.20;;;;;;5061470;28;20626;-80
2022/08/10 11:01:06;;;;;;;1.77;1.00;;;28.30;87.20;;;;;;5061717;28;20190;-80
2022/08/10 11:03:59;;;;;;;2.83;1.20;;;28.50;87.80;;;;;;5059753;28;20173;-80
2022/08/10 11:06:34;;;;;;;1.70;1.00;;;28.50;87.90;;;;;;5060909;28;20551;-81
2022/08/10 11:09:04;;;;;;;2.97;1.20;;;28.70;84.30;;;;;;5061448;28;20246;-80
2022/08/10 11:11:34;;;;;;;1.73;1.07;;;28.70;84.80;;;;;;5060692;28;20204;-79
2022/08/10 11:14:21;;;;;;;3.33;1.30;;;28.70;89.30;;;;;;5062283;28;20310;-80
2022/08/10 11:16:57;;;;;;;5.07;1.20;;;29.00;89.70;;;;;;5062802;28;20220;-81
2022/08/10 11:19:53;;;;;;;1.30;1.13;;;29.10;83.90;;;;;;5060934;28;20228;-80
2022/08/10 11:22:39;;;;;;;3.00;1.30;;;29.10;81.50;;;;;;5060650;28;20187;-80
2022/08/10 11:25:35;;;;;;;4.20;1.30;;;29.00;85.70;;;;;;5061924;28;20183;-80
2022/08/10 11:28:13;;;;;;;1.70;1.30;;;29.10;87.30;;;;;;5061513;28;20627;-80
2022/08/10 11:31:03;;;;;;;2.60;1.10;;;29.00;81.50;;;;;;5061464;28;20200;-80
2022/08/10 11:33:45;;;;;;;2.00;1.00;;;29.20;81.30;;;;;;5062806;28;20172;-80
2022/08/10 11:36:26;;;;;;;12.87;1.77;;;28.90;78.80;;;;;;5061703;28;20199;-79
2022/08/10 11:39:15;;;;;;;9.37;1.50;;;29.10;81.20;;;;;;5064732;28;20187;-80
2022/08/10 11:41:44;;;;;;;3.47;1.10;;;29.20;86.90;;;;;;5075059;28;20206;-80
2022/08/10 11:44:28;;;;;;;3.77;1.20;;;29.40;81.70;;;;;;5078113;28;20205;-80
2022/08/10 11:47:12;;;;;;;1.63;1.27;;;29.60;85.40;;;;;;5060863;28;20170;-82
2022/08/10 11:49:58;;;;;;;14.70;1.60;;;29.70;81.30;;;;;;5061870;28;20200;-80
2022/08/10 11:53:02;;;;;;;6.40;1.77;;;29.60;79.20;;;;;;5062128;28;20643;-81
2022/08/10 11:55:31;;;;;;;4.37;1.30;;;29.50;87.30;;;;;;5062801;28;20643;-81
2022/08/10 11:59:55;;;;;;;4.90;1.33;;;29.60;83.40;;;;;;5061505;28;20172;-80
2022/08/10 12:00:56;;;;;;;6.80;2.00;;;29.60;83.00;;;;;;5062004;28;20179;-80
2022/08/10 12:03:23;;;;;;;5.23;1.50;;;29.70;73.90;;;;;;5061577;28;20501;-79
2022/08/10 12:05:53;;;;;;;3.60;1.17;;;29.60;76.40;;;;;;5061162;28;20166;-80
2022/08/10 12:08:20;;;;;;;2.40;1.10;;;29.70;76.60;;;;;;5058916;28;20182;-80
2022/08/10 12:10:48;;;;;;;6.00;1.40;;;29.70;81.40;;;;;;5060696;28;20198;-80
2022/08/10 12:13:28;;;;;;;2.53;1.10;;;30.00;84.10;;;;;;5061355;28;20283;-81
2022/08/10 12:16:06;;;;;;;1.53;1.13;;;30.20;81.00;;;;;;5062104;28;20275;-81
2022/08/10 12:19:00;;;;;;;2.97;1.10;;;30.50;70.70;;;;;;5060904;28;20203;-82
2022/08/10 12:21:51;;;;;;;3.00;1.10;;;30.40;74.50;;;;;;5061658;28;20564;-81
2022/08/10 12:24:27;;;;;;;2.90;1.27;;;30.30;79.90;;;;;;5062460;28;20196;-81
2022/08/10 12:26:58;;;;;;;2.57;1.20;;;30.30;71.50;;;;;;5061737;28;20603;-81
2022/08/10 12:29:46;;;;;;;5.73;1.20;;;30.70;82.70;;;;;;5060980;28;20206;-82
2022/08/10 12:32:45;;;;;;;4.07;1.20;;;30.80;75.20;;;;;;5060657;28;20189;-82
2022/08/10 12:35:44;;;;;;;1.50;1.20;;;31.00;73.30;;;;;;5064249;28;20168;-83
2022/08/10 12:38:26;;;;;;;2.70;1.30;;;30.80;73.30;;;;;;5063104;28;20201;-82
2022/08/10 12:40:56;;;;;;;2.10;1.37;;;30.70;71.50;;;;;;5062952;28;20182;-83
2022/08/10 12:43:31;;;;;;;1.40;1.00;;;30.40;73.20;;;;;;5066109;28;20169;-83
2022/08/10 12:46:03;;;;;;;3.03;0.93;;;30.50;72.60;;;;;;5063782;28;20252;-80
2022/08/10 12:48:33;;;;;;;4.10;1.67;;;30.70;71.70;;;;;;5064719;28;20188;-81
2022/08/10 12:51:06;;;;;;;2.60;1.03;;;30.70;71.30;;;;;;5064760;28;20192;-84
2022/08/10 12:53:54;;;;;;;3.17;1.03;;;30.60;71.40;;;;;;5066384;28;20167;-85
2022/08/10 12:56:30;;;;;;;1.77;1.10;;;30.80;75.00;;;;;;5066280;28;20174;-83
2022/08/10 12:58:57;;;;;;;6.77;1.20;;;30.80;66.30;;;;;;5061075;28;20606;-83
2022/08/10 13:01:28;;;;;;;5.00;1.67;;;30.70;69.80;;;;;;5059431;28;20300;-83
2022/08/10 13:03:59;;;;;;;4.50;1.10;;;30.40;75.50;;;;;;5059852;28;20185;-82
2022/08/10 13:06:26;;;;;;;5.20;1.40;;;30.40;77.90;;;;;;5057849;28;20692;-79
2022/08/10 13:09:08;;;;;;;2.23;1.50;;;30.50;70.70;;;;;;5059491;28;20201;-79
2022/08/10 13:11:41;;;;;;;2.40;1.43;;;30.50;75.20;;;;;;5058656;28;20232;-79
2022/08/10 13:14:20;;;;;;;1.47;1.00;;;30.70;72.70;;;;;;5060616;28;20209;-80
2022/08/10 13:16:48;;;;;;;4.90;1.70;;;30.90;78.50;;;;;;5059301;28;20182;-81
2022/08/10 13:19:20;;;;;;;2.70;1.40;;;30.80;73.40;;;;;;5058138;28;20209;-81
2022/08/10 13:21:46;;;;;;;3.00;1.20;;;30.90;79.70;;;;;;5059554;28;20210;-82
2022/08/10 13:24:22;;;;;;;2.73;1.30;;;30.90;77.80;;;;;;5060932;28;20180;-81